Time;durP1;ratioP1;P1;durP2;ratioP2;P2;SDS_P1;SDS_P2;PMS_P1;PMS_P2;Temp;Humidity;BMP_temperature;BMP_pressure;BME280_temperature;BME280_humidity;BME280_pressure;Samples;Min_cycle;Max_cycle;Signal;HPM_P1;HPM_P2
2021/12/16 00:09:10;;;;;;;1.00;1.00;;;19.20;61.30;;;;;;4910934;29;20040;-67
2021/12/16 00:33:33;;;;;;;1.13;0.80;;;19.10;61.50;;;;;;5010121;28;20036;-68
2021/12/16 00:35:59;;;;;;;0.90;0.90;;;19.10;61.50;;;;;;4998290;28;20146;-67
2021/12/16 00:38:24;;;;;;;1.10;1.00;;;19.10;61.70;;;;;;4995464;28;20097;-67
2021/12/16 00:40:50;;;;;;;0.90;0.90;;;19.10;61.60;;;;;;4995295;28;20021;-67
2021/12/16 00:43:26;;;;;;;1.70;1.00;;;19.10;61.60;;;;;;4996649;28;20027;-68
2021/12/16 00:54:09;;;;;;;1.33;0.90;;;19.10;61.60;;;;;;4994498;28;20038;-68
2021/12/16 00:56:36;;;;;;;1.23;1.00;;;19.00;61.60;;;;;;4979696;28;20026;-68
2021/12/16 00:59:04;;;;;;;0.70;0.70;;;19.00;61.60;;;;;;4978303;28;20023;-68
2021/12/16 01:01:44;;;;;;;0.85;0.85;;;19.10;61.60;;;;;;4995481;28;20055;-68
2021/12/16 01:04:48;;;;;;;1.48;0.80;;;19.00;61.70;;;;;;5013991;28;20115;-68
2021/12/16 01:33:41;;;;;;;0.88;0.88;;;19.10;61.80;;;;;;5013591;28;20138;-67
2021/12/16 01:35:33;;;;;;;1.55;0.82;;;19.00;61.90;;;;;;4935089;29;20046;-68
2021/12/16 01:50:26;;;;;;;1.58;0.80;;;18.90;61.90;;;;;;4919812;29;20292;-68
2021/12/16 01:55:30;;;;;;;0.80;0.80;;;19.00;62.00;;;;;;4983147;28;20061;-67
2021/12/16 01:58:01;;;;;;;2.47;0.98;;;18.90;61.90;;;;;;4997931;28;20026;-68
2021/12/16 02:00:51;;;;;;;0.80;0.80;;;19.00;62.00;;;;;;5013039;28;20101;-67
2021/12/16 02:03:24;;;;;;;0.93;0.93;;;19.00;62.00;;;;;;4998673;28;20076;-67
2021/12/16 02:06:01;;;;;;;0.80;0.80;;;18.90;62.00;;;;;;5013614;28;20046;-67
2021/12/16 02:08:32;;;;;;;0.80;0.80;;;18.90;62.00;;;;;;5013565;28;20028;-67
2021/12/16 02:11:17;;;;;;;0.77;0.77;;;18.90;62.00;;;;;;5013693;28;20029;-67
2021/12/16 02:36:13;;;;;;;0.75;0.75;;;18.90;62.20;;;;;;4978927;28;20069;-68
2021/12/16 02:38:31;;;;;;;1.85;0.90;;;18.80;62.20;;;;;;4992193;28;20037;-68
2021/12/16 02:40:57;;;;;;;0.65;0.65;;;18.90;62.30;;;;;;4992470;28;20045;-68
2021/12/16 02:51:05;;;;;;;0.70;0.70;;;18.90;62.30;;;;;;4991969;28;20030;-68
2021/12/16 02:53:31;;;;;;;0.70;0.70;;;18.90;62.30;;;;;;4992160;28;20077;-68
2021/12/16 02:55:57;;;;;;;1.15;0.80;;;18.80;62.30;;;;;;4976148;28;20412;-67
2021/12/16 02:58:23;;;;;;;0.90;0.90;;;18.80;62.30;;;;;;4993377;28;20106;-67
2021/12/16 03:00:52;;;;;;;1.08;0.70;;;18.80;62.30;;;;;;4991958;28;20451;-67
2021/12/16 03:03:18;;;;;;;0.70;0.70;;;18.90;62.30;;;;;;5008051;28;20056;-68
2021/12/16 03:05:44;;;;;;;0.95;0.80;;;18.80;62.30;;;;;;5012385;28;20501;-68
2021/12/16 03:08:10;;;;;;;0.80;0.80;;;18.80;62.30;;;;;;5011623;28;20053;-68
2021/12/16 03:13:27;;;;;;;0.70;0.70;;;18.90;62.50;;;;;;5012485;28;20096;-67
2021/12/16 03:19:05;;;;;;;1.05;0.90;;;18.80;62.40;;;;;;5012697;28;20056;-67
2021/12/16 03:21:37;;;;;;;0.90;0.90;;;18.80;62.40;;;;;;5011812;28;20029;-67
2021/12/16 03:34:42;;;;;;;0.70;0.70;;;18.80;62.50;;;;;;5012306;28;20522;-68
2021/12/16 03:37:15;;;;;;;0.60;0.60;;;18.80;62.50;;;;;;5011350;28;20026;-68
2021/12/16 03:40:02;;;;;;;0.90;0.70;;;18.80;62.50;;;;;;4995579;28;20045;-68
2021/12/16 03:42:36;;;;;;;0.60;0.60;;;18.80;62.50;;;;;;5012526;28;20026;-68
2021/12/16 03:46:25;;;;;;;1.25;0.57;;;18.80;62.60;;;;;;4995996;28;20485;-68
2021/12/16 03:47:59;;;;;;;0.70;0.70;;;18.80;62.60;;;;;;5010988;28;20381;-68
2021/12/16 03:50:25;;;;;;;1.17;0.60;;;18.80;62.70;;;;;;5011097;28;20534;-68
2021/12/16 03:52:51;;;;;;;1.13;0.70;;;18.80;62.70;;;;;;5011396;28;20030;-68
2021/12/16 03:55:16;;;;;;;0.63;0.63;;;18.80;62.60;;;;;;5011154;28;20026;-68
2021/12/16 03:57:42;;;;;;;0.55;0.55;;;18.80;62.70;;;;;;5011164;28;20054;-68
2021/12/16 04:00:20;;;;;;;0.80;0.70;;;18.80;62.70;;;;;;5011014;28;20025;-67
2021/12/16 04:02:46;;;;;;;0.60;0.60;;;18.80;62.70;;;;;;5011977;28;20022;-68
2021/12/16 04:05:12;;;;;;;1.08;0.70;;;18.80;62.70;;;;;;5010584;28;20547;-68
2021/12/16 04:07:38;;;;;;;0.70;0.70;;;18.80;62.70;;;;;;5012232;28;20034;-67
2021/12/16 04:10:06;;;;;;;1.02;0.70;;;18.80;62.70;;;;;;5010932;28;20026;-67
2021/12/16 04:12:32;;;;;;;0.60;0.60;;;18.80;62.70;;;;;;5011124;28;20045;-67
2021/12/16 04:14:59;;;;;;;0.80;0.80;;;18.80;62.70;;;;;;5010801;28;20018;-67
2021/12/16 04:17:26;;;;;;;0.70;0.70;;;18.80;62.70;;;;;;4991243;28;20018;-68
2021/12/16 04:19:52;;;;;;;0.70;0.70;;;18.80;62.70;;;;;;4991298;28;20023;-68
2021/12/16 04:22:31;;;;;;;0.73;0.70;;;18.80;62.70;;;;;;4991211;28;20334;-68
2021/12/16 04:25:00;;;;;;;1.25;0.57;;;18.80;62.80;;;;;;4992364;28;20022;-68
2021/12/16 04:27:26;;;;;;;0.63;0.60;;;18.80;62.90;;;;;;4996046;28;20030;-68
2021/12/16 04:29:51;;;;;;;0.68;0.68;;;18.80;62.80;;;;;;4996141;28;20038;-68
2021/12/16 04:32:17;;;;;;;0.77;0.77;;;18.80;62.80;;;;;;4994562;28;20034;-68
2021/12/16 04:34:43;;;;;;;0.85;0.82;;;18.80;62.90;;;;;;4994963;28;20037;-68
2021/12/16 04:37:09;;;;;;;1.08;0.60;;;18.80;63.90;;;;;;4994802;28;20029;-68
2021/12/16 04:39:36;;;;;;;0.60;0.60;;;18.80;62.90;;;;;;4994715;28;20026;-67
2021/12/16 04:42:02;;;;;;;0.70;0.70;;;18.80;62.90;;;;;;4994928;28;20022;-68
2021/12/16 04:44:28;;;;;;;0.65;0.65;;;18.80;62.90;;;;;;4995747;28;20010;-68
2021/12/16 04:46:54;;;;;;;0.60;0.60;;;18.70;62.80;;;;;;4995683;28;20105;-68
2021/12/16 04:49:19;;;;;;;0.80;0.68;;;18.80;62.90;;;;;;4994625;28;20029;-67
2021/12/16 04:51:52;;;;;;;0.70;0.70;;;18.80;62.90;;;;;;4978262;28;20030;-67
2021/12/16 04:54:18;;;;;;;0.63;0.63;;;18.80;64.00;;;;;;4994542;28;20018;-67
2021/12/16 04:56:45;;;;;;;0.70;0.70;;;18.80;62.90;;;;;;4994489;28;20030;-68
2021/12/16 04:59:11;;;;;;;0.57;0.57;;;18.80;62.90;;;;;;4994301;28;20050;-68
2021/12/16 05:01:38;;;;;;;0.95;0.60;;;18.80;63.00;;;;;;4994064;28;20046;-68
2021/12/16 05:04:04;;;;;;;0.88;0.88;;;18.80;62.90;;;;;;4994287;28;20073;-68
2021/12/16 05:06:30;;;;;;;0.60;0.60;;;18.80;63.00;;;;;;4993976;28;20054;-67
2021/12/16 05:08:55;;;;;;;1.33;0.60;;;18.80;63.00;;;;;;4994258;28;20034;-67
2021/12/16 05:11:21;;;;;;;0.60;0.60;;;18.70;63.00;;;;;;4995556;28;20037;-68
2021/12/16 05:13:48;;;;;;;0.60;0.60;;;18.80;63.00;;;;;;4995552;28;20026;-68
2021/12/16 05:16:14;;;;;;;0.50;0.50;;;18.80;63.00;;;;;;5004878;28;20026;-67
2021/12/16 05:18:44;;;;;;;0.60;0.60;;;18.80;63.00;;;;;;5014992;28;20018;-67
2021/12/16 05:21:26;;;;;;;0.60;0.60;;;18.70;63.00;;;;;;4997829;28;20062;-67
2021/12/16 05:26:35;;;;;;;0.73;0.73;;;18.70;63.10;;;;;;5015095;28;20045;-67
2021/12/16 05:29:01;;;;;;;1.23;0.80;;;18.70;63.10;;;;;;5014478;28;20033;-67
2021/12/16 05:31:27;;;;;;;0.70;0.70;;;18.70;63.20;;;;;;5014401;28;20470;-67
2021/12/16 05:33:54;;;;;;;0.50;0.50;;;18.70;63.10;;;;;;4997280;28;20061;-67
2021/12/16 05:36:20;;;;;;;0.60;0.60;;;18.70;63.10;;;;;;5012491;28;20051;-67
2021/12/16 05:38:46;;;;;;;0.60;0.60;;;18.70;63.10;;;;;;5013486;28;20472;-67
2021/12/16 05:41:15;;;;;;;0.93;0.70;;;18.70;63.10;;;;;;4996767;28;20021;-67
2021/12/16 05:43:40;;;;;;;0.70;0.70;;;18.70;63.20;;;;;;5014470;28;20451;-67
2021/12/16 05:46:06;;;;;;;0.60;0.60;;;18.70;63.20;;;;;;4996603;28;20054;-67
2021/12/16 05:48:35;;;;;;;1.02;0.57;;;18.70;63.10;;;;;;5013124;28;20030;-67
2021/12/16 05:51:04;;;;;;;1.33;0.60;;;18.70;63.10;;;;;;5013087;28;20026;-67
2021/12/16 05:53:29;;;;;;;0.93;0.60;;;18.70;63.20;;;;;;5014193;28;20510;-67
2021/12/16 05:55:56;;;;;;;1.05;0.90;;;18.70;63.20;;;;;;5013932;28;20105;-67
2021/12/16 05:58:22;;;;;;;0.65;0.65;;;18.70;64.20;;;;;;5012838;28;20022;-68
2021/12/16 06:00:51;;;;;;;0.70;0.60;;;18.70;63.20;;;;;;5012581;28;20033;-67
2021/12/16 06:03:17;;;;;;;0.60;0.60;;;18.70;63.20;;;;;;5013725;28;20018;-67
2021/12/16 06:05:43;;;;;;;0.60;0.60;;;18.70;63.20;;;;;;4996296;28;20100;-68
2021/12/16 06:08:09;;;;;;;0.60;0.60;;;18.70;63.20;;;;;;5012786;28;20029;-68
2021/12/16 06:13:22;;;;;;;0.60;0.60;;;18.70;63.30;;;;;;5001100;28;20484;-67
2021/12/16 06:26:39;;;;;;;1.20;0.73;;;18.70;63.60;;;;;;5007425;28;20060;-71
2021/12/16 06:29:05;;;;;;;0.60;0.60;;;18.70;63.50;;;;;;4997423;28;20058;-71
2021/12/16 06:31:31;;;;;;;0.60;0.60;;;18.70;63.40;;;;;;5013129;28;20061;-71
2021/12/16 06:33:57;;;;;;;0.90;0.90;;;18.70;63.30;;;;;;5005779;28;20023;-70
2021/12/16 06:36:22;;;;;;;0.70;0.70;;;18.70;63.30;;;;;;5001893;28;20084;-70
2021/12/16 06:38:48;;;;;;;0.80;0.80;;;18.70;63.30;;;;;;5011752;28;20021;-70
2021/12/16 06:41:14;;;;;;;0.70;0.70;;;18.70;63.20;;;;;;4996612;28;20022;-70
2021/12/16 06:43:40;;;;;;;0.70;0.70;;;18.70;63.10;;;;;;5007193;28;20064;-71
2021/12/16 06:46:11;;;;;;;0.57;0.57;;;18.70;63.10;;;;;;5001272;28;20125;-70
2021/12/16 06:48:40;;;;;;;0.60;0.60;;;18.70;63.20;;;;;;5011007;28;20488;-70
2021/12/16 06:51:13;;;;;;;0.60;0.60;;;18.70;63.10;;;;;;4996156;28;20377;-70
2021/12/16 06:53:52;;;;;;;0.60;0.60;;;18.70;63.10;;;;;;4993706;28;20023;-70
2021/12/16 06:56:28;;;;;;;0.60;0.60;;;18.70;63.00;;;;;;5001095;28;20034;-70
2021/12/16 06:59:20;;;;;;;2.38;0.60;;;18.70;63.00;;;;;;4997801;28;20022;-70
2021/12/16 07:01:59;;;;;;;0.80;0.63;;;18.70;63.00;;;;;;4995781;28;20077;-70
2021/12/16 07:04:25;;;;;;;0.50;0.50;;;18.70;63.00;;;;;;4997168;28;20072;-70
2021/12/16 07:06:50;;;;;;;0.60;0.60;;;18.70;63.00;;;;;;5011585;28;20053;-70
2021/12/16 07:09:17;;;;;;;0.80;0.80;;;18.70;63.00;;;;;;5012799;28;20399;-70
2021/12/16 07:11:49;;;;;;;0.60;0.60;;;18.80;62.90;;;;;;5011340;28;20092;-70
2021/12/16 07:14:16;;;;;;;0.63;0.63;;;18.80;62.90;;;;;;5012761;28;20022;-70
2021/12/16 07:16:43;;;;;;;0.60;0.60;;;18.80;62.80;;;;;;5011436;28;20547;-70
2021/12/16 07:19:09;;;;;;;0.60;0.60;;;18.80;62.80;;;;;;5011553;28;20026;-70
2021/12/16 07:21:38;;;;;;;0.65;0.65;;;18.80;62.80;;;;;;4995381;28;20072;-71
2021/12/16 07:24:14;;;;;;;3.45;1.02;;;18.80;62.70;;;;;;4995490;28;20381;-71
2021/12/16 07:26:39;;;;;;;3.30;1.50;;;18.80;62.70;;;;;;5011319;28;20062;-70
2021/12/16 07:29:05;;;;;;;7.88;2.10;;;18.80;62.80;;;;;;4994592;28;20057;-70
2021/12/16 07:31:32;;;;;;;7.22;2.00;;;18.80;62.80;;;;;;4994401;28;20081;-71
2021/12/16 07:33:58;;;;;;;5.88;1.80;;;18.90;62.90;;;;;;4990693;28;20113;-70
2021/12/16 07:36:24;;;;;;;4.70;1.55;;;18.90;62.90;;;;;;4990209;28;20094;-70
2021/12/16 07:38:50;;;;;;;7.45;1.77;;;18.90;62.80;;;;;;4974611;28;20030;-70
2021/12/16 07:41:20;;;;;;;3.00;1.73;;;18.90;62.80;;;;;;4992339;28;20061;-70
2021/12/16 07:44:09;;;;;;;2.10;1.13;;;18.90;62.70;;;;;;4991868;28;20041;-70
2021/12/16 07:46:39;;;;;;;5.55;1.83;;;18.90;62.70;;;;;;4991692;28;20022;-70
2021/12/16 07:49:05;;;;;;;3.22;1.65;;;18.90;62.80;;;;;;4991550;28;20073;-70
2021/12/16 07:51:31;;;;;;;3.13;1.30;;;18.90;62.70;;;;;;4991574;28;20034;-70
2021/12/16 07:53:57;;;;;;;3.47;1.25;;;18.90;62.70;;;;;;4994125;28;20398;-70
2021/12/16 07:56:22;;;;;;;4.25;1.50;;;18.90;62.70;;;;;;4999834;28;20121;-70
2021/12/16 07:58:48;;;;;;;1.77;0.95;;;19.00;62.80;;;;;;5005278;28;20081;-70
2021/12/16 08:01:14;;;;;;;3.03;1.30;;;18.90;62.70;;;;;;4994544;28;20030;-70
2021/12/16 08:03:41;;;;;;;3.08;1.20;;;18.90;62.60;;;;;;5012885;28;20062;-70
2021/12/16 08:06:10;;;;;;;2.42;1.33;;;19.00;62.70;;;;;;5016162;28;20137;-70
2021/12/16 08:08:36;;;;;;;4.30;1.10;;;18.90;62.60;;;;;;5016010;28;20022;-70
2021/12/16 08:11:01;;;;;;;2.17;1.17;;;19.00;62.70;;;;;;5012305;28;20026;-70
2021/12/16 08:13:27;;;;;;;2.45;1.33;;;18.90;62.60;;;;;;4996452;28;20400;-70
2021/12/16 08:15:53;;;;;;;2.83;1.42;;;18.90;62.60;;;;;;4996438;28;20028;-70
2021/12/16 08:18:19;;;;;;;2.78;1.10;;;19.00;62.60;;;;;;4995261;28;20049;-70
2021/12/16 08:20:44;;;;;;;1.45;0.90;;;19.00;62.60;;;;;;4995006;28;20019;-70
2021/12/16 08:23:10;;;;;;;1.30;1.02;;;18.90;62.50;;;;;;4996359;28;20030;-70
2021/12/16 08:25:36;;;;;;;1.13;0.95;;;19.00;62.60;;;;;;4978527;28;20030;-70
2021/12/16 08:28:03;;;;;;;2.95;1.17;;;19.00;62.50;;;;;;4998281;28;20022;-70
2021/12/16 08:30:29;;;;;;;2.15;1.10;;;19.00;62.50;;;;;;5014385;28;20492;-70
2021/12/16 08:32:56;;;;;;;2.00;1.15;;;19.00;62.50;;;;;;5015752;28;20026;-70
2021/12/16 08:35:22;;;;;;;0.82;0.77;;;19.00;62.50;;;;;;4997998;28;20068;-70
2021/12/16 08:37:47;;;;;;;0.98;0.88;;;19.00;62.50;;;;;;5014610;28;20064;-70
2021/12/16 08:40:18;;;;;;;2.00;0.82;;;19.00;62.50;;;;;;5015303;28;20024;-70
2021/12/16 08:42:44;;;;;;;0.68;0.68;;;19.00;62.50;;;;;;4998387;28;20029;-70
2021/12/16 08:45:11;;;;;;;0.90;0.77;;;19.00;62.50;;;;;;5014206;28;20030;-70
2021/12/16 08:47:37;;;;;;;1.40;0.90;;;19.00;62.50;;;;;;5015343;28;20101;-70
2021/12/16 08:50:04;;;;;;;3.35;1.20;;;19.00;62.40;;;;;;5015549;28;20100;-70
2021/12/16 08:52:29;;;;;;;1.02;0.93;;;19.00;62.40;;;;;;5013961;28;20029;-70
2021/12/16 08:54:55;;;;;;;1.60;0.90;;;19.00;62.40;;;;;;5013701;28;20080;-70
2021/12/16 08:57:21;;;;;;;0.70;0.70;;;19.00;62.50;;;;;;4995689;28;20105;-70
2021/12/16 08:59:48;;;;;;;1.75;0.80;;;19.00;62.40;;;;;;4994415;28;20018;-70
2021/12/16 09:02:13;;;;;;;1.60;1.10;;;19.00;62.40;;;;;;4996601;28;20026;-70
2021/12/16 09:04:39;;;;;;;1.42;1.13;;;19.00;62.40;;;;;;5014819;28;20403;-70
2021/12/16 09:07:07;;;;;;;0.80;0.80;;;19.00;62.30;;;;;;5014790;28;20037;-70
2021/12/16 09:09:34;;;;;;;0.80;0.70;;;19.00;62.30;;;;;;5014988;28;20025;-70
2021/12/16 09:12:07;;;;;;;0.98;0.80;;;19.00;62.40;;;;;;5013033;28;20026;-70
2021/12/16 09:14:33;;;;;;;;;;;19.00;62.30;;;;;;4998759;28;20037;-70
2021/12/16 09:16:58;;;;;;;1.30;0.70;;;19.00;63.20;;;;;;5014883;28;19906;-70
2021/12/16 09:19:24;;;;;;;0.73;0.60;;;18.90;62.50;;;;;;5014881;28;20065;-70
2021/12/16 09:21:50;;;;;;;1.90;0.88;;;18.90;62.40;;;;;;5014601;28;20117;-70
2021/12/16 09:24:15;;;;;;;0.52;0.52;;;18.90;62.30;;;;;;5014902;28;20388;-70
2021/12/16 09:26:42;;;;;;;0.82;0.65;;;18.90;62.30;;;;;;4997127;28;20392;-70
2021/12/16 09:29:08;;;;;;;0.80;0.68;;;19.00;62.30;;;;;;5014728;28;20026;-70
2021/12/16 09:31:33;;;;;;;1.00;0.70;;;19.00;62.30;;;;;;5013350;28;20598;-70
2021/12/16 09:34:06;;;;;;;0.65;0.52;;;19.00;63.30;;;;;;5013540;28;20026;-70
2021/12/16 09:36:32;;;;;;;1.33;0.65;;;18.90;62.20;;;;;;5012845;28;20060;-70
2021/12/16 09:38:58;;;;;;;1.10;0.63;;;18.90;62.10;;;;;;5013196;28;20496;-70
2021/12/16 09:41:25;;;;;;;0.52;0.52;;;19.00;62.20;;;;;;4997141;28;20057;-70
2021/12/16 09:43:51;;;;;;;1.42;0.80;;;19.00;62.20;;;;;;5013249;28;20115;-70
2021/12/16 09:46:19;;;;;;;1.15;0.55;;;19.00;62.20;;;;;;5013312;28;20112;-70
2021/12/16 09:48:45;;;;;;;0.50;0.50;;;19.00;62.10;;;;;;5014214;28;20491;-70
2021/12/16 09:51:20;;;;;;;0.65;0.60;;;19.00;62.10;;;;;;5013029;28;20098;-70
2021/12/16 09:53:46;;;;;;;1.17;0.60;;;19.00;62.10;;;;;;5014190;28;20030;-70
2021/12/16 09:56:12;;;;;;;1.27;0.60;;;19.00;62.10;;;;;;5013926;28;20142;-70
2021/12/16 09:58:40;;;;;;;0.95;0.60;;;19.00;62.10;;;;;;5014064;28;20384;-70
2021/12/16 10:01:09;;;;;;;0.57;0.57;;;19.00;62.00;;;;;;5014010;28;20511;-70
2021/12/16 10:03:35;;;;;;;1.90;0.50;;;18.90;61.90;;;;;;5000517;28;20124;-70
2021/12/16 10:06:01;;;;;;;0.65;0.52;;;18.90;61.90;;;;;;4992876;28;20524;-70
2021/12/16 10:08:27;;;;;;;0.60;0.60;;;18.90;61.90;;;;;;4994293;28;20061;-70
2021/12/16 10:10:53;;;;;;;0.75;0.50;;;19.00;62.00;;;;;;4993301;28;20018;-70
2021/12/16 10:13:34;;;;;;;0.52;0.52;;;19.00;62.00;;;;;;4977012;28;20507;-70
2021/12/16 10:18:28;;;;;;;0.65;0.65;;;18.90;61.90;;;;;;4994175;28;20023;-70
2021/12/16 10:20:57;;;;;;;0.50;0.50;;;18.90;61.80;;;;;;4993643;28;20026;-70
2021/12/16 10:23:33;;;;;;;0.40;0.40;;;18.90;61.80;;;;;;4977116;28;20029;-70
2021/12/16 10:26:10;;;;;;;0.82;0.68;;;19.00;61.80;;;;;;4994090;28;20022;-70
2021/12/16 10:28:39;;;;;;;0.82;0.50;;;19.00;61.70;;;;;;4993993;28;20101;-70
2021/12/16 10:31:10;;;;;;;0.50;0.50;;;18.90;62.70;;;;;;4992664;28;20117;-70
2021/12/16 10:33:37;;;;;;;0.50;0.40;;;19.00;61.80;;;;;;4993735;28;20038;-70
2021/12/16 10:36:18;;;;;;;0.43;0.43;;;18.90;61.70;;;;;;4992447;28;20467;-70
2021/12/16 10:38:47;;;;;;;0.43;0.43;;;19.00;61.60;;;;;;4992606;28;20022;-70
2021/12/16 10:41:17;;;;;;;0.90;0.50;;;18.90;61.60;;;;;;4976610;28;20053;-70
2021/12/16 10:43:45;;;;;;;0.75;0.57;;;19.00;61.70;;;;;;4992352;28;20145;-70
2021/12/16 10:46:17;;;;;;;0.52;0.50;;;18.90;61.60;;;;;;4993646;28;20022;-70
2021/12/16 10:48:43;;;;;;;0.40;0.40;;;18.90;61.50;;;;;;4976238;28;20105;-70
2021/12/16 10:51:10;;;;;;;0.40;0.40;;;18.90;61.60;;;;;;4993613;28;20041;-70
2021/12/16 10:53:52;;;;;;;0.50;0.50;;;19.00;61.70;;;;;;4993366;28;20026;-70
2021/12/16 10:56:22;;;;;;;0.63;0.60;;;18.90;61.50;;;;;;5004569;28;20033;-70
2021/12/16 10:58:53;;;;;;;0.40;0.40;;;18.90;61.60;;;;;;5011802;28;20057;-70
2021/12/16 11:02:03;;;;;;;0.47;0.47;;;18.90;61.60;;;;;;5013221;28;20033;-70
2021/12/16 11:04:37;;;;;;;0.68;0.47;;;19.00;61.40;;;;;;4971248;28;20046;-70
2021/12/16 11:07:09;;;;;;;0.80;0.50;;;18.90;61.60;;;;;;4971656;28;20074;-71
2021/12/16 11:09:46;;;;;;;0.43;0.35;;;18.90;61.50;;;;;;4971633;28;20081;-70
2021/12/16 11:12:50;;;;;;;0.45;0.35;;;18.90;61.50;;;;;;4955618;28;20042;-70
2021/12/16 11:15:30;;;;;;;0.60;0.50;;;19.00;61.40;;;;;;4914042;29;20055;-70
2021/12/16 11:18:14;;;;;;;0.40;0.40;;;18.90;62.50;;;;;;4913768;29;20035;-70
2021/12/16 11:21:01;;;;;;;0.30;0.30;;;18.90;61.60;;;;;;4914116;29;20493;-70
2021/12/16 11:23:28;;;;;;;0.30;0.30;;;18.90;61.50;;;;;;4914245;29;20028;-70
2021/12/16 11:25:59;;;;;;;0.80;0.50;;;18.90;61.60;;;;;;4913906;29;20071;-70
2021/12/16 11:28:33;;;;;;;0.40;0.40;;;18.90;61.60;;;;;;4914257;29;20059;-70
2021/12/16 11:31:02;;;;;;;0.40;0.40;;;18.90;61.50;;;;;;4914065;29;20063;-70
2021/12/16 11:33:32;;;;;;;0.40;0.40;;;18.90;61.50;;;;;;4913832;29;20032;-70
2021/12/16 11:36:27;;;;;;;0.57;0.57;;;18.90;61.50;;;;;;4913659;29;20048;-70
2021/12/16 11:39:09;;;;;;;0.82;0.50;;;19.00;61.30;;;;;;4913818;29;20044;-70
2021/12/16 11:41:46;;;;;;;0.43;0.43;;;18.90;61.20;;;;;;4898235;29;20039;-70
2021/12/16 11:44:21;;;;;;;0.52;0.52;;;18.90;61.30;;;;;;4882905;29;20032;-70
2021/12/16 11:47:09;;;;;;;0.50;0.50;;;18.90;61.30;;;;;;4913531;29;20032;-70
2021/12/16 11:50:02;;;;;;;0.30;0.30;;;18.90;61.20;;;;;;4899092;28;20145;-70
2021/12/16 11:52:32;;;;;;;0.47;0.47;;;18.90;61.30;;;;;;4991927;28;20026;-70
2021/12/16 11:55:00;;;;;;;0.57;0.57;;;18.90;61.40;;;;;;4991984;28;20042;-70
2021/12/16 11:57:37;;;;;;;0.40;0.40;;;18.90;61.30;;;;;;5011287;28;20022;-70
2021/12/16 12:00:07;;;;;;;0.40;0.40;;;18.90;61.20;;;;;;4995163;28;20156;-70
2021/12/16 12:02:38;;;;;;;0.47;0.47;;;18.90;61.30;;;;;;5006906;28;20030;-70
2021/12/16 12:05:23;;;;;;;0.95;0.50;;;18.90;61.20;;;;;;4975611;28;20042;-70
2021/12/16 12:07:54;;;;;;;0.45;0.45;;;18.90;61.10;;;;;;4992543;28;20031;-70
2021/12/16 12:10:50;;;;;;;0.52;0.52;;;18.90;61.20;;;;;;4991600;28;20022;-70
2021/12/16 12:13:24;;;;;;;0.50;0.50;;;18.90;61.00;;;;;;4992762;28;20066;-70
2021/12/16 12:16:00;;;;;;;0.73;0.45;;;18.90;61.10;;;;;;4990952;28;20026;-70
2021/12/16 12:18:43;;;;;;;0.60;0.47;;;18.90;61.20;;;;;;4992669;28;20027;-70
2021/12/16 12:21:24;;;;;;;0.50;0.50;;;18.90;61.00;;;;;;4992592;28;20089;-70
2021/12/16 12:23:54;;;;;;;0.43;0.43;;;18.90;61.00;;;;;;4991315;28;20018;-70
2021/12/16 12:26:21;;;;;;;0.43;0.43;;;18.90;61.10;;;;;;4991237;28;20022;-70
2021/12/16 12:28:47;;;;;;;0.57;0.57;;;18.90;61.10;;;;;;4959077;28;20034;-70
2021/12/16 12:31:14;;;;;;;0.65;0.65;;;18.90;61.00;;;;;;4975019;28;20050;-70
2021/12/16 12:33:39;;;;;;;0.52;0.52;;;18.90;61.00;;;;;;4992251;28;20027;-70
2021/12/16 12:36:07;;;;;;;0.60;0.60;;;18.90;61.00;;;;;;4992515;28;20101;-70
2021/12/16 12:38:32;;;;;;;0.50;0.50;;;18.90;60.90;;;;;;4991057;28;20070;-70
2021/12/16 12:40:58;;;;;;;0.40;0.40;;;18.90;61.00;;;;;;4975068;28;20022;-70
2021/12/16 12:43:24;;;;;;;0.50;0.50;;;18.90;61.00;;;;;;4991344;28;20027;-70
2021/12/16 12:45:49;;;;;;;0.70;0.70;;;18.90;61.00;;;;;;4990780;28;20396;-70
2021/12/16 12:48:17;;;;;;;0.60;0.60;;;18.90;60.90;;;;;;4994162;28;20057;-70
2021/12/16 12:50:44;;;;;;;0.50;0.50;;;18.90;60.90;;;;;;4995840;28;20019;-70
2021/12/16 12:53:49;;;;;;;0.63;0.63;;;18.90;60.90;;;;;;4994558;28;20030;-70
2021/12/16 12:56:24;;;;;;;0.40;0.40;;;19.00;60.70;;;;;;5005308;28;20033;-70
2021/12/16 12:58:58;;;;;;;0.50;0.50;;;18.90;60.90;;;;;;5014154;28;20033;-70
2021/12/16 13:01:44;;;;;;;0.50;0.50;;;18.90;60.90;;;;;;5015362;28;20021;-70
2021/12/16 13:04:26;;;;;;;0.80;0.60;;;18.90;60.70;;;;;;5014903;28;20046;-70
2021/12/16 13:07:06;;;;;;;0.68;0.68;;;18.90;60.70;;;;;;5013664;28;20121;-70
2021/12/16 13:09:34;;;;;;;1.02;0.88;;;18.90;60.70;;;;;;5015248;28;20061;-70
2021/12/16 13:12:01;;;;;;;0.50;0.50;;;18.90;60.80;;;;;;5013852;28;20037;-70
2021/12/16 13:14:49;;;;;;;0.70;0.70;;;18.90;60.80;;;;;;5013659;28;20022;-70
2021/12/16 13:28:42;;;;;;;0.52;0.52;;;18.80;60.70;;;;;;5014200;28;20380;-70
2021/12/16 13:31:47;;;;;;;0.68;0.68;;;18.80;60.70;;;;;;5000127;28;20053;-70
2021/12/16 13:34:25;;;;;;;0.50;0.50;;;18.90;60.60;;;;;;5014603;28;20030;-70
2021/12/16 13:36:56;;;;;;;0.45;0.45;;;18.90;60.70;;;;;;5014508;28;20080;-70
2021/12/16 13:39:27;;;;;;;1.48;0.70;;;18.90;60.70;;;;;;5013443;28;20514;-70
2021/12/16 13:42:05;;;;;;;0.50;0.50;;;18.80;60.60;;;;;;5013300;28;20029;-70
2021/12/16 13:45:08;;;;;;;0.60;0.60;;;18.90;60.60;;;;;;5014115;28;20455;-70
2021/12/16 13:47:52;;;;;;;0.57;0.57;;;18.90;60.40;;;;;;4957453;28;20416;-70
2021/12/16 14:02:31;;;;;;;0.50;0.50;;;18.80;60.70;;;;;;4972828;28;20042;-70
2021/12/16 14:07:54;;;;;;;0.43;0.43;;;18.90;60.60;;;;;;4972863;28;20035;-70
2021/12/16 14:10:23;;;;;;;0.65;0.65;;;18.90;60.60;;;;;;4958288;28;20035;-70
2021/12/16 14:16:57;;;;;;;0.55;0.55;;;18.90;60.40;;;;;;4972186;28;20042;-70
2021/12/16 14:50:12;;;;;;;0.40;0.40;;;18.90;60.50;;;;;;4993895;28;20044;-70
2021/12/16 14:52:38;;;;;;;0.70;0.70;;;18.80;60.40;;;;;;4992374;28;20488;-70
2021/12/16 14:55:10;;;;;;;0.60;0.60;;;18.80;60.30;;;;;;4991585;28;20025;-70
2021/12/16 14:57:41;;;;;;;0.40;0.40;;;18.90;60.40;;;;;;4992342;28;20106;-70
2021/12/16 15:00:35;;;;;;;0.50;0.50;;;18.90;60.40;;;;;;4976298;28;20101;-70
2021/12/16 15:03:04;;;;;;;0.50;0.50;;;18.90;60.30;;;;;;5001018;28;20018;-70
2021/12/16 15:05:33;;;;;;;0.50;0.50;;;18.90;60.40;;;;;;5011843;28;20042;-70
2021/12/16 15:08:38;;;;;;;0.50;0.50;;;18.80;60.30;;;;;;5011436;28;20088;-70
2021/12/16 15:11:06;;;;;;;0.50;0.50;;;18.90;60.10;;;;;;4997303;28;20033;-70
2021/12/16 15:36:07;;;;;;;0.50;0.50;;;18.80;60.20;;;;;;4952037;29;20038;-70
2021/12/16 15:39:13;;;;;;;0.40;0.40;;;18.80;60.20;;;;;;4939076;29;20047;-70
2021/12/16 15:44:10;;;;;;;0.50;0.50;;;18.80;60.20;;;;;;4938716;29;20035;-70
2021/12/16 15:46:36;;;;;;;0.50;0.50;;;18.80;60.20;;;;;;4935870;29;20035;-70
2021/12/16 15:49:02;;;;;;;0.43;0.43;;;18.90;60.20;;;;;;4947136;28;20038;-70
2021/12/16 15:51:28;;;;;;;0.50;0.50;;;18.90;60.20;;;;;;4995181;28;20037;-70
2021/12/16 15:53:58;;;;;;;0.52;0.52;;;18.90;60.10;;;;;;4994476;28;20022;-70
2021/12/16 15:56:27;;;;;;;0.55;0.55;;;18.90;60.10;;;;;;5012082;28;20116;-70
2021/12/16 15:58:57;;;;;;;0.60;0.60;;;18.90;60.10;;;;;;5011110;28;20026;-70
2021/12/16 16:01:29;;;;;;;0.40;0.40;;;18.90;60.00;;;;;;5011096;28;20101;-70
2021/12/16 16:03:55;;;;;;;0.40;0.40;;;18.90;60.00;;;;;;4994951;28;20018;-70
2021/12/16 16:06:21;;;;;;;0.60;0.60;;;18.90;60.00;;;;;;4991274;28;20130;-70
2021/12/16 16:08:53;;;;;;;0.40;0.40;;;18.80;60.00;;;;;;4991297;28;20030;-70
2021/12/16 16:11:24;;;;;;;0.40;0.40;;;18.90;60.00;;;;;;4992644;28;20027;-70
2021/12/16 16:13:57;;;;;;;0.50;0.50;;;18.90;60.00;;;;;;4992625;28;20443;-70
2021/12/16 16:16:28;;;;;;;0.43;0.43;;;18.90;60.00;;;;;;4991288;28;20053;-70
2021/12/16 16:18:55;;;;;;;0.40;0.40;;;18.90;60.00;;;;;;4991441;28;20037;-70
2021/12/16 16:21:33;;;;;;;0.40;0.40;;;18.90;60.00;;;;;;4994464;28;20393;-70
2021/12/16 16:24:03;;;;;;;0.30;0.30;;;18.90;59.90;;;;;;4994840;28;20072;-70
2021/12/16 16:26:30;;;;;;;0.40;0.38;;;18.90;60.00;;;;;;4996337;28;20023;-70
2021/12/16 16:29:01;;;;;;;0.40;0.40;;;18.90;60.00;;;;;;4995064;28;20399;-70
2021/12/16 16:31:27;;;;;;;0.40;0.40;;;18.90;59.90;;;;;;4995395;28;20481;-70
2021/12/16 16:33:53;;;;;;;0.43;0.43;;;18.90;59.90;;;;;;4994895;28;20022;-70
2021/12/16 16:36:20;;;;;;;0.32;0.32;;;18.90;59.90;;;;;;4994847;28;20077;-70
2021/12/16 16:38:48;;;;;;;0.45;0.45;;;18.90;59.90;;;;;;4994701;28;20026;-70
2021/12/16 16:41:16;;;;;;;0.40;0.40;;;18.80;59.80;;;;;;4978625;28;20026;-70
2021/12/16 16:43:44;;;;;;;0.50;0.50;;;18.90;59.90;;;;;;4978852;28;20023;-70
2021/12/16 16:46:26;;;;;;;0.40;0.40;;;18.90;59.80;;;;;;4978655;28;20030;-70
2021/12/16 16:49:14;;;;;;;0.35;0.35;;;18.90;59.70;;;;;;4979443;28;20033;-70
2021/12/16 16:51:41;;;;;;;0.30;0.30;;;18.90;59.80;;;;;;4994103;28;20093;-70
2021/12/16 16:54:12;;;;;;;0.40;0.40;;;18.80;59.80;;;;;;4994529;28;20046;-70
2021/12/16 16:56:53;;;;;;;0.38;0.38;;;18.90;59.80;;;;;;5008604;28;20105;-70